createdAt,value
2022-09-23T00:01:29.244Z,1.63
2022-09-23T00:03:56.426Z,1.45
2022-09-23T00:06:24.003Z,2.00
2022-09-23T00:08:51.444Z,1.67
2022-09-23T00:11:22.141Z,1.50
2022-09-23T00:13:49.876Z,1.67
2022-09-23T00:16:21.222Z,1.63
2022-09-23T00:18:49.934Z,1.70
2022-09-23T00:21:17.027Z,1.80
2022-09-23T00:23:43.672Z,1.48
2022-09-23T00:26:12.396Z,1.90
2022-09-23T00:28:38.983Z,1.83
2022-09-23T00:31:10.541Z,1.55
2022-09-23T00:33:37.377Z,1.90
2022-09-23T00:36:05.498Z,1.80
2022-09-23T00:38:32.344Z,1.67
2022-09-23T00:40:59.042Z,1.75
2022-09-23T00:43:38.146Z,1.70
2022-09-23T00:46:06.695Z,1.30
2022-09-23T00:48:34.242Z,1.60
2022-09-23T00:51:01.499Z,1.63
2022-09-23T00:53:28.456Z,1.70
2022-09-23T00:55:57.429Z,1.80
2022-09-23T00:58:26.914Z,1.65
2022-09-23T01:00:54.097Z,1.90
2022-09-23T01:03:22.987Z,1.65
2022-09-23T01:05:50.209Z,2.15
2022-09-23T01:08:16.982Z,1.70
2022-09-23T01:11:01.161Z,1.52
2022-09-23T01:13:46.926Z,1.60
2022-09-23T01:16:13.618Z,1.67
2022-09-23T01:18:43.559Z,1.75
2022-09-23T01:21:19.364Z,1.85
2022-09-23T01:23:45.929Z,1.77
2022-09-23T01:26:31.421Z,1.83
2022-09-23T01:29:13.088Z,1.90
2022-09-23T01:31:55.204Z,1.67
2022-09-23T01:34:26.340Z,2.00
2022-09-23T01:36:58.745Z,1.80
2022-09-23T01:39:37.120Z,2.10
2022-09-23T01:42:16.962Z,1.55
2022-09-23T01:44:47.204Z,1.98
2022-09-23T01:47:27.477Z,2.03
2022-09-23T01:49:59.152Z,1.70
2022-09-23T01:52:32.893Z,1.90
2022-09-23T01:55:08.608Z,1.90
2022-09-23T01:57:41.341Z,1.70
2022-09-23T02:00:13.871Z,2.33
2022-09-23T02:02:49.884Z,2.22
2022-09-23T02:05:19.098Z,2.42
2022-09-23T02:07:48.913Z,2.20
2022-09-23T02:10:18.516Z,1.90
2022-09-23T02:12:47.405Z,2.17
2022-09-23T02:15:16.178Z,1.92
2022-09-23T02:17:47.620Z,2.05
2022-09-23T02:20:15.995Z,1.90
2022-09-23T02:22:55.949Z,2.15
2022-09-23T02:25:25.940Z,1.90
2022-09-23T02:28:24.852Z,2.00
2022-09-23T02:30:58.932Z,2.45
2022-09-23T02:33:34.407Z,2.05
2022-09-23T02:36:06.422Z,1.60
2022-09-23T02:38:39.961Z,1.88
2022-09-23T02:41:29.822Z,2.20
2022-09-23T02:44:06.319Z,2.22
2022-09-23T02:46:33.523Z,1.95
2022-09-23T02:49:05.747Z,2.33
2022-09-23T02:51:34.904Z,2.22
2022-09-23T02:54:03.494Z,1.92
2022-09-23T02:56:30.064Z,1.95
2022-09-23T02:58:57.012Z,2.15
2022-09-23T03:01:45.270Z,2.40
2022-09-23T03:04:16.199Z,2.25
2022-09-23T03:06:45.557Z,2.13
2022-09-23T03:09:22.492Z,1.92
2022-09-23T03:12:07.088Z,2.05
2022-09-23T03:14:41.638Z,2.22
2022-09-23T03:17:12.643Z,2.17
2022-09-23T03:19:41.487Z,1.90
2022-09-23T03:22:19.054Z,2.17
2022-09-23T03:24:50.699Z,2.30
2022-09-23T03:27:23.681Z,2.22
2022-09-23T03:29:52.234Z,2.35
2022-09-23T03:32:20.897Z,2.58
2022-09-23T03:34:49.168Z,2.25
2022-09-23T03:37:25.265Z,2.30
2022-09-23T03:39:54.544Z,2.42
2022-09-23T03:42:23.233Z,2.10
2022-09-23T03:44:52.388Z,2.22
2022-09-23T03:47:18.984Z,2.67
2022-09-23T03:49:49.751Z,2.30
2022-09-23T03:52:17.199Z,2.25
2022-09-23T03:54:43.917Z,2.00
2022-09-23T03:57:10.864Z,2.38
2022-09-23T03:59:37.462Z,2.15
2022-09-23T04:02:05.431Z,2.30
2022-09-23T04:04:34.812Z,2.22
2022-09-23T04:07:01.426Z,2.30
2022-09-23T04:09:28.060Z,2.33
2022-09-23T04:11:54.939Z,3.10
2022-09-23T04:14:22.107Z,2.45
2022-09-23T04:16:49.506Z,2.35
2022-09-23T04:19:16.552Z,2.42
2022-09-23T04:21:43.797Z,2.38
2022-09-23T04:24:10.869Z,2.40
2022-09-23T04:26:38.343Z,2.85
2022-09-23T04:29:05.619Z,2.83
2022-09-23T04:31:32.748Z,2.80
2022-09-23T04:33:59.939Z,2.70
2022-09-23T04:36:26.912Z,2.72
2022-09-23T04:38:53.543Z,2.50
2022-09-23T04:41:20.226Z,2.80
2022-09-23T04:43:46.848Z,2.30
2022-09-23T04:46:14.399Z,2.50
2022-09-23T04:48:43.963Z,2.30
2022-09-23T04:51:17.930Z,2.78
2022-09-23T04:53:46.242Z,2.90
2022-09-23T04:56:15.922Z,2.60
2022-09-23T04:58:44.233Z,2.78
2022-09-23T05:01:24.796Z,2.92
2022-09-23T05:03:52.901Z,2.97
2022-09-23T05:06:20.427Z,2.60
2022-09-23T05:08:51.176Z,2.88
2022-09-23T05:11:18.795Z,2.78
2022-09-23T05:13:47.168Z,3.10
2022-09-23T05:16:13.938Z,3.05
2022-09-23T05:18:42.742Z,3.10
2022-09-23T05:21:13.867Z,2.83
2022-09-23T05:23:40.939Z,3.08
2022-09-23T05:26:09.419Z,3.00
2022-09-23T05:28:37.470Z,3.22
2022-09-23T05:31:19.786Z,3.33
2022-09-23T05:33:52.077Z,3.22
2022-09-23T05:36:20.559Z,3.10
2022-09-23T05:38:49.216Z,3.78
2022-09-23T05:41:16.412Z,2.80
2022-09-23T05:43:43.051Z,2.92
2022-09-23T05:46:09.662Z,3.30
2022-09-23T05:48:36.484Z,3.30
2022-09-23T05:51:03.903Z,3.78
2022-09-23T05:53:30.917Z,3.15
2022-09-23T05:55:57.578Z,2.63
2022-09-23T05:58:24.668Z,3.20
2022-09-23T06:00:51.585Z,3.28
2022-09-23T06:03:20.246Z,4.03
2022-09-23T06:05:47.005Z,3.25
2022-09-23T06:08:13.853Z,3.65
2022-09-23T06:10:41.779Z,3.03
2022-09-23T06:13:08.849Z,3.42
2022-09-23T06:15:36.287Z,3.55
2022-09-23T06:18:03.417Z,3.53
2022-09-23T06:20:29.980Z,3.33
2022-09-23T06:23:05.170Z,3.47
2022-09-23T06:25:33.933Z,3.53
2022-09-23T06:28:00.650Z,3.80
2022-09-23T06:30:27.808Z,3.75
2022-09-23T06:32:55.559Z,4.28
2022-09-23T06:35:27.470Z,4.93
2022-09-23T06:37:54.805Z,5.10
2022-09-23T06:40:22.567Z,4.45
2022-09-23T06:42:52.404Z,4.97
2022-09-23T06:45:19.130Z,4.50
2022-09-23T06:47:46.498Z,5.07
2022-09-23T06:50:13.116Z,4.78
2022-09-23T06:52:39.733Z,4.75
2022-09-23T06:55:06.622Z,4.70
2022-09-23T06:57:33.243Z,5.55
2022-09-23T06:59:59.936Z,5.00
2022-09-23T07:02:26.865Z,5.95
2022-09-23T07:04:56.566Z,5.18
2022-09-23T07:07:23.333Z,5.65
2022-09-23T07:09:50.190Z,5.28
2022-09-23T07:12:16.788Z,5.60
2022-09-23T07:14:43.372Z,4.95
2022-09-23T07:17:10.005Z,4.80
2022-09-23T07:19:36.696Z,4.57
2022-09-23T07:22:03.708Z,4.63
2022-09-23T07:24:30.353Z,5.40
2022-09-23T07:26:56.986Z,4.88
2022-09-23T07:29:23.565Z,5.47
2022-09-23T07:31:50.253Z,5.40
2022-09-23T07:34:17.077Z,5.18
2022-09-23T07:36:43.845Z,5.85
2022-09-23T07:39:11.977Z,5.53
2022-09-23T07:41:38.806Z,5.25
2022-09-23T07:44:06.129Z,6.30
2022-09-23T07:46:34.723Z,6.05
2022-09-23T07:49:02.892Z,5.85
2022-09-23T07:51:35.718Z,4.93
2022-09-23T07:54:05.361Z,5.88
2022-09-23T07:56:31.964Z,5.93
2022-09-23T07:59:01.798Z,5.53
2022-09-23T08:01:29.857Z,5.35
2022-09-23T08:03:57.076Z,6.00
2022-09-23T08:06:23.994Z,5.82
2022-09-23T08:08:53.287Z,5.05
2022-09-23T08:11:20.232Z,6.00
2022-09-23T08:13:47.257Z,5.45
2022-09-23T08:16:23.006Z,6.03
2022-09-23T08:18:52.040Z,5.95
2022-09-23T08:21:20.225Z,6.28
2022-09-23T08:23:46.988Z,5.97
2022-09-23T08:26:20.420Z,5.88
2022-09-23T08:28:48.806Z,6.15
2022-09-23T08:31:15.457Z,5.65
2022-09-23T08:33:42.116Z,6.38
2022-09-23T08:36:08.871Z,5.70
2022-09-23T08:38:35.837Z,5.88
2022-09-23T08:41:16.680Z,6.55
2022-09-23T08:43:45.944Z,6.38
2022-09-23T08:46:13.274Z,7.15
2022-09-23T08:48:44.406Z,6.47
2022-09-23T08:51:23.697Z,7.18
2022-09-23T08:53:50.356Z,6.55
2022-09-23T08:56:17.896Z,6.53
2022-09-23T08:59:00.156Z,7.00
2022-09-23T09:01:34.772Z,6.60
2022-09-23T09:04:12.897Z,7.35
2022-09-23T09:06:53.585Z,6.93
2022-09-23T09:09:23.664Z,6.57
2022-09-23T09:11:51.764Z,7.28
2022-09-23T09:14:42.510Z,5.80
2022-09-23T09:17:24.661Z,6.75
2022-09-23T09:20:03.564Z,7.00
2022-09-23T09:23:05.466Z,6.35
2022-09-23T09:25:50.188Z,7.25
2022-09-23T09:28:30.951Z,6.63
2022-09-23T09:31:00.864Z,6.85
2022-09-23T09:33:31.114Z,6.80
2022-09-23T09:36:16.421Z,6.80
2022-09-23T09:38:43.032Z,6.93
2022-09-23T09:41:17.720Z,6.95
2022-09-23T09:43:48.502Z,7.10
2022-09-23T09:46:18.398Z,6.60
2022-09-23T09:49:10.482Z,7.20
2022-09-23T09:51:39.684Z,7.15
2022-09-23T09:54:17.140Z,7.50
2022-09-23T09:56:44.875Z,7.15
2022-09-23T09:59:16.350Z,7.38
2022-09-23T10:01:43.328Z,6.95
2022-09-23T10:04:19.105Z,6.28
2022-09-23T10:07:03.199Z,7.30
2022-09-23T10:09:33.109Z,7.32
2022-09-23T10:12:10.709Z,6.93
2022-09-23T10:14:37.495Z,7.72
2022-09-23T10:17:05.924Z,7.45
2022-09-23T10:19:34.696Z,7.20
2022-09-23T10:22:07.764Z,7.05
2022-09-23T10:24:36.912Z,6.75
2022-09-23T10:27:07.784Z,6.22
2022-09-23T10:29:39.107Z,6.88
2022-09-23T10:32:20.815Z,6.57
2022-09-23T10:34:52.146Z,6.80
2022-09-23T10:37:24.469Z,7.53
2022-09-23T10:40:09.816Z,7.35
2022-09-23T10:43:18.396Z,6.88
2022-09-23T10:46:07.360Z,6.82
2022-09-23T10:48:43.177Z,6.97
2022-09-23T10:51:32.071Z,5.88
2022-09-23T10:54:06.168Z,6.60
2022-09-23T10:56:51.980Z,6.45
2022-09-23T10:59:21.450Z,6.70
2022-09-23T11:02:02.099Z,6.82
2022-09-23T11:04:36.410Z,6.57
2022-09-23T11:07:23.927Z,6.82
2022-09-23T11:09:56.589Z,7.10
2022-09-23T11:12:26.343Z,6.93
2022-09-23T11:15:02.072Z,6.60
2022-09-23T11:17:37.957Z,6.78
2022-09-23T11:20:16.599Z,7.60
2022-09-23T11:22:55.092Z,6.80
2022-09-23T11:25:24.489Z,8.18
2022-09-23T11:27:54.071Z,7.85
2022-09-23T11:30:21.087Z,7.30
2022-09-23T11:36:07.500Z,7.30
2022-09-23T11:38:46.398Z,7.40
2022-09-23T11:41:19.730Z,7.25
2022-09-23T11:43:51.374Z,7.78
2022-09-23T11:46:30.664Z,8.30
2022-09-23T11:49:03.191Z,7.53
2022-09-23T11:51:34.687Z,7.88
2022-09-23T11:54:01.978Z,8.10
2022-09-23T11:56:38.094Z,6.85
2022-09-23T11:59:11.959Z,7.65
2022-09-23T12:01:45.563Z,7.38
2022-09-23T12:04:23.678Z,7.53
2022-09-23T12:07:13.720Z,7.32
2022-09-23T12:09:58.946Z,7.20
2022-09-23T12:12:27.183Z,7.53
2022-09-23T12:14:53.819Z,6.60
2022-09-23T12:17:20.397Z,6.90
2022-09-23T12:19:51.706Z,6.97
2022-09-23T12:22:26.978Z,6.35
2022-09-23T12:24:57.935Z,5.07
2022-09-23T12:27:28.560Z,5.07
2022-09-23T12:29:57.640Z,4.60
2022-09-23T12:32:25.171Z,3.97
2022-09-23T12:34:52.344Z,3.70
2022-09-23T12:37:31.740Z,3.78
2022-09-23T12:39:59.569Z,4.15
2022-09-23T12:42:30.783Z,3.95
2022-09-23T12:45:17.325Z,4.03
2022-09-23T12:47:44.193Z,4.20
2022-09-23T12:50:30.090Z,3.85
2022-09-23T12:52:57.289Z,3.78
2022-09-23T12:55:23.876Z,3.80
2022-09-23T12:57:50.517Z,3.55
2022-09-23T13:00:20.140Z,3.33
2022-09-23T13:02:46.735Z,3.95
2022-09-23T13:05:37.590Z,3.45
2022-09-23T13:08:16.099Z,3.08
2022-09-23T13:10:45.960Z,3.35
2022-09-23T13:13:20.536Z,3.00
2022-09-23T13:15:47.828Z,3.72
2022-09-23T13:18:23.122Z,3.00
2022-09-23T13:20:54.159Z,3.17
2022-09-23T13:23:21.395Z,3.42
2022-09-23T13:25:48.518Z,2.83
2022-09-23T13:28:27.449Z,3.13
2022-09-23T13:30:54.192Z,3.40
2022-09-23T13:33:42.430Z,3.45
2022-09-23T13:36:11.042Z,2.85
2022-09-23T13:38:37.697Z,3.00
2022-09-23T13:41:07.924Z,3.28
2022-09-23T13:43:41.165Z,3.00
2022-09-23T13:46:10.512Z,2.83
2022-09-23T13:48:37.377Z,2.40
2022-09-23T13:51:10.108Z,2.65
2022-09-23T13:53:37.135Z,2.30
2022-09-23T13:56:05.689Z,2.65
2022-09-23T13:58:33.197Z,2.63
2022-09-23T14:00:59.884Z,2.58
2022-09-23T14:03:26.459Z,2.30
2022-09-23T14:05:54.103Z,2.80
2022-09-23T14:08:20.907Z,2.30
2022-09-23T14:10:47.753Z,2.70
2022-09-23T14:13:21.319Z,2.33
2022-09-23T14:15:52.991Z,2.35
2022-09-23T14:18:27.398Z,2.35
2022-09-23T14:20:54.041Z,2.50
2022-09-23T14:23:20.721Z,2.45
2022-09-23T14:25:47.557Z,2.10
2022-09-23T14:28:19.110Z,1.95
2022-09-23T14:30:46.282Z,2.25
2022-09-23T14:33:15.265Z,2.53
2022-09-23T14:35:44.634Z,1.95
2022-09-23T14:38:29.928Z,2.10
2022-09-23T14:41:16.921Z,2.20
2022-09-23T14:43:48.874Z,2.25
2022-09-23T14:46:19.938Z,2.85
2022-09-23T14:49:00.335Z,2.17
2022-09-23T14:51:40.004Z,1.70
2022-09-23T14:54:23.256Z,2.00
2022-09-23T14:56:50.409Z,2.47
2022-09-23T14:59:34.437Z,1.98
2022-09-23T15:02:01.317Z,2.30
2022-09-23T15:04:31.052Z,2.10
2022-09-23T15:07:03.233Z,2.17
2022-09-23T15:09:31.869Z,2.17
2022-09-23T15:12:02.014Z,1.70
2022-09-23T15:14:39.216Z,2.15
2022-09-23T15:17:14.544Z,2.03
2022-09-23T15:19:41.343Z,2.35
2022-09-23T15:22:10.384Z,2.25
2022-09-23T15:24:41.747Z,2.00
2022-09-23T15:27:20.186Z,1.98
2022-09-23T15:29:46.977Z,2.55
2022-09-23T15:32:13.627Z,2.38
2022-09-23T15:34:40.506Z,2.22
2022-09-23T15:37:10.215Z,2.22
2022-09-23T15:39:37.220Z,1.95
2022-09-23T15:42:03.884Z,2.13
2022-09-23T15:44:30.599Z,1.83
2022-09-23T15:46:59.954Z,1.90
2022-09-23T15:49:34.589Z,2.15
2022-09-23T15:52:01.657Z,1.80
2022-09-23T15:54:28.660Z,2.10
2022-09-23T15:56:56.437Z,1.90
2022-09-23T15:59:24.089Z,2.38
2022-09-23T16:01:51.415Z,2.08
2022-09-23T16:04:18.103Z,2.42
2022-09-23T16:06:45.426Z,2.60
2022-09-23T16:09:14.687Z,2.55
2022-09-23T16:11:45.747Z,2.22
2022-09-23T16:14:16.306Z,2.90
2022-09-23T16:16:45.122Z,2.40
2022-09-23T16:19:12.389Z,2.60
2022-09-23T16:21:40.867Z,2.53
2022-09-23T16:24:18.002Z,2.67
2022-09-23T16:26:46.585Z,2.25
2022-09-23T16:29:13.648Z,2.17
2022-09-23T16:31:40.326Z,2.28
2022-09-23T16:34:07.150Z,2.28
2022-09-23T16:36:34.870Z,2.75
2022-09-23T16:39:03.311Z,2.45
2022-09-23T16:41:31.489Z,2.38
2022-09-23T16:44:00.499Z,2.15
2022-09-23T16:46:27.982Z,2.83
2022-09-23T16:48:57.630Z,2.45
2022-09-23T16:51:31.103Z,2.67
2022-09-23T16:53:58.571Z,2.35
2022-09-23T16:56:28.612Z,2.40
2022-09-23T16:58:56.357Z,2.40
2022-09-23T17:01:50.720Z,2.15
2022-09-23T17:04:19.009Z,3.08
2022-09-23T17:06:50.457Z,4.45
2022-09-23T17:09:18.694Z,3.92
2022-09-23T17:11:48.896Z,4.07
2022-09-23T17:14:15.978Z,3.08
2022-09-23T17:16:42.928Z,2.78
2022-09-23T17:19:10.546Z,3.05
2022-09-23T17:21:37.199Z,2.38
2022-09-23T17:24:04.797Z,2.30
2022-09-23T17:26:31.505Z,2.83
2022-09-23T17:28:59.616Z,2.15
2022-09-23T17:31:26.381Z,2.20
2022-09-23T17:33:53.213Z,2.70
2022-09-23T17:36:20.458Z,2.53
2022-09-23T17:38:48.168Z,2.60
2022-09-23T17:41:15.484Z,2.72
2022-09-23T17:43:42.135Z,2.53
2022-09-23T17:46:10.864Z,2.60
2022-09-23T17:48:38.689Z,2.38
2022-09-23T17:51:14.110Z,2.42
2022-09-23T17:53:41.608Z,2.50
2022-09-23T17:56:11.393Z,2.22
2022-09-23T17:58:38.083Z,3.10
2022-09-23T18:01:08.267Z,2.50
2022-09-23T18:03:34.918Z,2.50
2022-09-23T18:06:08.660Z,2.85
2022-09-23T18:08:35.325Z,2.70
2022-09-23T18:11:10.245Z,2.38
2022-09-23T18:13:36.960Z,2.65
2022-09-23T18:16:03.717Z,2.53
2022-09-23T18:18:31.004Z,2.20
2022-09-23T18:21:01.632Z,2.47
2022-09-23T18:23:28.738Z,2.30
2022-09-23T18:25:55.843Z,2.60
2022-09-23T18:28:22.584Z,2.15
2022-09-23T18:30:53.939Z,2.22
2022-09-23T18:33:21.272Z,2.55
2022-09-23T18:35:47.871Z,2.40
2022-09-23T18:38:14.644Z,2.30
2022-09-23T18:40:51.033Z,2.15
2022-09-23T18:43:19.829Z,2.08
2022-09-23T18:45:54.357Z,2.83
2022-09-23T18:48:39.910Z,2.30
2022-09-23T18:51:07.353Z,2.50
2022-09-23T18:53:34.446Z,2.30
2022-09-23T18:56:05.310Z,2.17
2022-09-23T18:58:32.453Z,2.33
2022-09-23T19:01:06.712Z,3.15
2022-09-23T19:03:34.119Z,2.13
2022-09-23T19:06:27.248Z,2.13
2022-09-23T19:08:54.527Z,2.03
2022-09-23T19:11:22.104Z,2.10
2022-09-23T19:13:53.496Z,2.60
2022-09-23T19:16:20.176Z,2.42
2022-09-23T19:18:46.844Z,2.30
2022-09-23T19:21:14.224Z,2.55
2022-09-23T19:23:44.623Z,2.65
2022-09-23T19:26:12.460Z,2.20
2022-09-23T19:28:39.349Z,2.53
2022-09-23T19:31:13.941Z,2.90
2022-09-23T19:33:46.222Z,2.30
2022-09-23T19:36:15.391Z,2.38
2022-09-23T19:38:42.257Z,3.35
2022-09-23T19:41:09.139Z,2.53
2022-09-23T19:43:38.675Z,2.38
2022-09-23T19:46:06.792Z,2.38
2022-09-23T19:48:34.195Z,2.38
2022-09-23T19:51:02.629Z,2.38
2022-09-23T19:53:29.237Z,2.30
2022-09-23T19:55:56.338Z,4.07
2022-09-23T19:58:23.439Z,3.00
2022-09-23T20:00:50.161Z,2.58
2022-09-23T20:03:18.255Z,2.60
2022-09-23T20:05:44.921Z,2.58
2022-09-23T20:08:11.559Z,2.75
2022-09-23T20:10:39.421Z,2.55
2022-09-23T20:13:06.059Z,2.40
2022-09-23T20:15:32.663Z,2.92
2022-09-23T20:17:59.244Z,2.60
2022-09-23T20:20:25.864Z,2.75
2022-09-23T20:22:53.909Z,2.60
2022-09-23T20:25:20.494Z,2.40
2022-09-23T20:27:52.641Z,2.60
2022-09-23T20:30:19.956Z,2.75
2022-09-23T20:32:48.571Z,2.50
2022-09-23T20:35:16.351Z,2.72
2022-09-23T20:37:43.072Z,2.83
2022-09-23T20:40:10.293Z,2.63
2022-09-23T20:42:36.962Z,2.80
2022-09-23T20:45:03.734Z,2.45
2022-09-23T20:47:30.376Z,2.30
2022-09-23T20:49:56.957Z,2.63
2022-09-23T20:52:23.696Z,2.45
2022-09-23T20:54:51.673Z,2.60
2022-09-23T20:57:19.964Z,2.47
2022-09-23T20:59:46.735Z,2.80
2022-09-23T21:02:13.480Z,2.67
2022-09-23T21:04:40.188Z,2.95
2022-09-23T21:07:07.236Z,2.45
2022-09-23T21:09:34.029Z,2.53
2022-09-23T21:12:00.811Z,2.60
2022-09-23T21:14:27.470Z,2.60
2022-09-23T21:16:54.915Z,2.58
2022-09-23T21:19:21.598Z,2.85
2022-09-23T21:21:48.349Z,2.70
2022-09-23T21:24:45.586Z,2.63
2022-09-23T21:27:03.895Z,2.65
2022-09-23T21:29:30.513Z,2.60
2022-09-23T21:31:57.233Z,2.72
2022-09-23T21:34:28.087Z,2.80
2022-09-23T21:36:55.429Z,3.45
2022-09-23T21:39:22.022Z,2.78
2022-09-23T21:41:49.826Z,3.30
2022-09-23T21:44:17.077Z,3.30
2022-09-23T21:46:43.722Z,2.78
2022-09-23T21:49:10.410Z,3.13
2022-09-23T21:51:40.526Z,3.33
2022-09-23T21:54:10.793Z,3.08
2022-09-23T21:56:37.922Z,2.97
2022-09-23T21:59:05.276Z,2.65
2022-09-23T22:01:35.178Z,3.13
2022-09-23T22:04:05.176Z,2.88
2022-09-23T22:06:32.176Z,3.17
2022-09-23T22:09:03.608Z,3.10
2022-09-23T22:11:49.865Z,3.05
2022-09-23T22:14:17.384Z,2.70
2022-09-23T22:16:44.448Z,3.03
2022-09-23T22:19:12.621Z,2.97
2022-09-23T22:21:40.941Z,3.35
2022-09-23T22:24:08.744Z,3.30
2022-09-23T22:26:35.313Z,3.42
2022-09-23T22:29:20.413Z,3.55
2022-09-23T22:32:05.731Z,3.00
2022-09-23T22:34:48.950Z,3.20
2022-09-23T22:37:18.773Z,2.95
2022-09-23T22:39:45.615Z,2.90
2022-09-23T22:42:15.123Z,3.25
2022-09-23T22:44:41.948Z,2.85
2022-09-23T22:47:09.283Z,2.95
2022-09-23T22:49:36.048Z,3.33
2022-09-23T22:52:07.904Z,3.20
2022-09-23T22:54:35.166Z,3.03
2022-09-23T22:57:04.134Z,3.75
2022-09-23T22:59:31.145Z,3.10
2022-09-23T23:01:59.647Z,3.15
2022-09-23T23:04:27.024Z,3.50
2022-09-23T23:06:53.628Z,3.10
2022-09-23T23:09:20.270Z,3.45
2022-09-23T23:11:47.236Z,3.35
2022-09-23T23:14:16.203Z,3.58
2022-09-23T23:16:43.786Z,3.40
2022-09-23T23:19:14.037Z,3.22
2022-09-23T23:21:43.447Z,3.28
2022-09-23T23:24:17.332Z,2.90
2022-09-23T23:26:44.366Z,2.97
2022-09-23T23:29:11.863Z,3.00
2022-09-23T23:31:38.680Z,2.90
2022-09-23T23:34:05.914Z,2.50
2022-09-23T23:36:32.628Z,3.45
2022-09-23T23:38:59.223Z,3.13
2022-09-23T23:41:25.933Z,3.20
2022-09-23T23:43:56.731Z,3.35
2022-09-23T23:46:25.545Z,4.38
2022-09-23T23:48:52.407Z,3.47
2022-09-23T23:51:18.994Z,3.60
2022-09-23T23:53:45.663Z,3.53
2022-09-23T23:56:13.504Z,3.15
2022-09-23T23:58:41.073Z,3.60
